Time;durP1;ratioP1;P1;durP2;ratioP2;P2;SDS_P1;SDS_P2;PMS_P1;PMS_P2;Temp;Humidity;BMP_temperature;BMP_pressure;BME280_temperature;BME280_humidity;BME280_pressure;Samples;Min_cycle;Max_cycle;Signal;HPM_P1;HPM_P2
2022/09/26 00:01:52;;;;;;;6.40;2.30;;;12.00;99.90;;;;;;5029122;28;20540;-47
2022/09/26 00:04:21;;;;;;;2.30;2.10;;;12.00;99.90;;;;;;5027387;28;20542;-47
2022/09/26 00:06:49;;;;;;;2.70;2.50;;;11.90;99.90;;;;;;5030129;28;20534;-46
2022/09/26 00:09:17;;;;;;;5.00;2.63;;;11.90;99.90;;;;;;5027371;28;20514;-47
2022/09/26 00:11:44;;;;;;;4.50;2.50;;;11.90;99.90;;;;;;5028833;28;20943;-46
2022/09/26 00:14:14;;;;;;;2.27;2.10;;;11.90;99.90;;;;;;5029263;28;20503;-46
2022/09/26 00:16:41;;;;;;;4.73;2.00;;;11.90;99.90;;;;;;5029340;28;20941;-46
2022/09/26 00:19:08;;;;;;;2.93;2.20;;;11.90;99.90;;;;;;5030409;28;20549;-47
2022/09/26 00:21:35;;;;;;;3.33;2.27;;;11.90;99.90;;;;;;5027861;28;20538;-47
2022/09/26 00:24:04;;;;;;;4.87;2.17;;;11.80;99.90;;;;;;5024450;28;20609;-46
2022/09/26 00:26:33;;;;;;;6.10;2.90;;;11.80;99.90;;;;;;5029233;28;20539;-47
2022/09/26 00:29:03;;;;;;;3.10;1.97;;;11.80;99.90;;;;;;5028501;28;21007;-46
2022/09/26 00:31:33;;;;;;;2.37;1.90;;;11.80;99.90;;;;;;5026088;28;20582;-48
2022/09/26 00:33:59;;;;;;;3.03;2.00;;;11.80;99.90;;;;;;5027777;28;21005;-46
2022/09/26 00:36:27;;;;;;;2.43;2.23;;;11.80;99.90;;;;;;5027535;28;20495;-45
2022/09/26 00:38:53;;;;;;;2.57;2.37;;;11.80;99.90;;;;;;5030198;28;20512;-47
2022/09/26 00:41:21;;;;;;;3.53;2.07;;;11.70;99.90;;;;;;5028736;28;20545;-47
2022/09/26 00:43:50;;;;;;;1.87;1.77;;;11.70;99.90;;;;;;5030779;28;20491;-46
2022/09/26 00:46:27;;;;;;;3.23;2.60;;;11.70;99.90;;;;;;5027357;28;20550;-46
2022/09/26 00:49:02;;;;;;;3.27;2.20;;;11.70;99.90;;;;;;5026678;28;20538;-47
2022/09/26 00:51:29;;;;;;;3.23;1.93;;;11.60;99.90;;;;;;5026277;28;20577;-46
2022/09/26 00:53:56;;;;;;;3.43;2.13;;;11.60;99.90;;;;;;5028008;28;20545;-46
2022/09/26 00:56:29;;;;;;;4.60;2.30;;;11.60;99.90;;;;;;5025600;28;20545;-47
2022/09/26 00:59:01;;;;;;;3.57;2.00;;;11.50;99.90;;;;;;5029365;28;20952;-46
2022/09/26 01:01:28;;;;;;;5.30;2.20;;;11.50;99.90;;;;;;5027613;28;21118;-47
2022/09/26 01:03:56;;;;;;;3.03;1.83;;;11.50;99.90;;;;;;5026276;28;20554;-47
2022/09/26 01:06:22;;;;;;;3.87;2.40;;;11.40;99.90;;;;;;5029806;28;20486;-47
2022/09/26 01:08:52;;;;;;;3.57;2.30;;;11.30;99.90;;;;;;5028380;28;20459;-46
2022/09/26 01:11:19;;;;;;;2.23;1.93;;;11.30;99.90;;;;;;5030203;28;20522;-50
2022/09/26 01:13:48;;;;;;;3.30;1.83;;;11.20;99.90;;;;;;5033757;28;20505;-51
2022/09/26 01:16:15;;;;;;;4.07;2.77;;;11.10;99.90;;;;;;5032280;28;20466;-51
2022/09/26 01:18:43;;;;;;;2.50;2.30;;;11.10;99.90;;;;;;5032499;28;20945;-52
2022/09/26 01:21:32;;;;;;;1.90;1.70;;;11.00;99.90;;;;;;5028674;28;21021;-50
2022/09/26 01:24:24;;;;;;;3.23;2.50;;;11.00;99.90;;;;;;5029370;28;20525;-50
2022/09/26 01:27:13;;;;;;;5.30;2.57;;;10.90;99.90;;;;;;5030389;28;20653;-51
2022/09/26 01:30:07;;;;;;;4.50;2.50;;;10.90;99.90;;;;;;5030340;28;20513;-50
2022/09/26 01:33:06;;;;;;;2.57;2.37;;;10.80;99.90;;;;;;5031931;28;20576;-50
2022/09/26 01:36:00;;;;;;;3.87;2.40;;;10.80;99.90;;;;;;5006621;28;20502;-51
2022/09/26 01:38:36;;;;;;;7.00;2.13;;;10.80;99.90;;;;;;5031165;28;20537;-51
2022/09/26 01:41:28;;;;;;;1.97;1.87;;;10.70;99.90;;;;;;5029395;28;20574;-51
2022/09/26 01:44:03;;;;;;;2.83;2.43;;;10.60;99.90;;;;;;5027710;28;20463;-52
2022/09/26 01:46:36;;;;;;;3.07;2.47;;;10.60;99.90;;;;;;5030785;28;20466;-50
2022/09/26 01:49:10;;;;;;;2.70;2.40;;;10.60;99.90;;;;;;5031273;28;20823;-52
2022/09/26 01:51:41;;;;;;;4.33;2.43;;;10.60;99.90;;;;;;5023985;28;20548;-51
2022/09/26 01:54:13;;;;;;;2.53;2.30;;;10.60;99.90;;;;;;5031745;28;20472;-51
2022/09/26 01:56:41;;;;;;;2.63;2.23;;;10.60;99.90;;;;;;5024283;28;20549;-51
2022/09/26 01:59:14;;;;;;;3.07;2.87;;;10.60;99.90;;;;;;5031719;28;20540;-50
2022/09/26 02:01:45;;;;;;;4.63;2.87;;;10.60;99.90;;;;;;5029496;28;20451;-50
2022/09/26 02:04:16;;;;;;;3.70;2.70;;;10.60;99.90;;;;;;5027956;28;20498;-51
2022/09/26 02:06:46;;;;;;;6.40;2.80;;;10.60;99.90;;;;;;5024757;28;20486;-46
2022/09/26 02:09:17;;;;;;;5.50;3.17;;;10.70;99.90;;;;;;5032754;28;20968;-47
2022/09/26 02:11:47;;;;;;;6.20;2.60;;;10.60;99.90;;;;;;5051571;22;20525;-48
2022/09/26 02:14:20;;;;;;;3.07;2.53;;;10.60;99.90;;;;;;5031460;28;20505;-48
2022/09/26 02:16:50;;;;;;;7.00;4.40;;;10.60;99.90;;;;;;5028643;28;20487;-48
2022/09/26 02:19:21;;;;;;;6.73;4.73;;;10.60;99.90;;;;;;5027819;28;20501;-49
2022/09/26 02:21:48;;;;;;;7.13;4.17;;;10.60;99.90;;;;;;5029714;28;20507;-49
2022/09/26 02:24:15;;;;;;;5.67;3.70;;;10.60;99.90;;;;;;5030924;28;20494;-48
2022/09/26 02:26:42;;;;;;;3.90;2.87;;;10.60;99.90;;;;;;5031305;28;20549;-48
2022/09/26 02:29:09;;;;;;;3.50;2.93;;;10.60;99.90;;;;;;5030087;28;20510;-49
2022/09/26 02:31:40;;;;;;;3.57;3.20;;;10.60;99.90;;;;;;5028414;28;20483;-48
2022/09/26 02:34:08;;;;;;;6.50;3.30;;;10.60;99.90;;;;;;5028605;28;20470;-48
2022/09/26 02:36:35;;;;;;;3.73;2.67;;;10.60;99.90;;;;;;5030822;28;20493;-49
2022/09/26 02:39:02;;;;;;;5.17;3.10;;;10.60;99.90;;;;;;5029451;28;20960;-49
2022/09/26 02:41:39;;;;;;;3.90;2.90;;;10.50;99.90;;;;;;5029549;28;20820;-48
2022/09/26 02:44:20;;;;;;;5.10;2.90;;;10.40;99.90;;;;;;5026831;28;20548;-48
2022/09/26 02:47:15;;;;;;;3.93;2.57;;;10.40;99.90;;;;;;5028280;28;20581;-48
2022/09/26 02:49:59;;;;;;;5.63;2.97;;;10.40;99.90;;;;;;5029763;28;20493;-48
2022/09/26 02:52:35;;;;;;;3.10;2.90;;;10.30;99.90;;;;;;5030276;28;20518;-49
2022/09/26 02:55:12;;;;;;;3.23;2.80;;;10.20;99.90;;;;;;5028763;28;20490;-49
2022/09/26 02:57:47;;;;;;;3.93;3.03;;;10.20;99.90;;;;;;5028317;28;20517;-49
2022/09/26 03:00:17;;;;;;;4.60;2.70;;;10.20;99.90;;;;;;5026201;28;20521;-48
2022/09/26 03:02:49;;;;;;;3.73;2.60;;;10.20;99.90;;;;;;5030107;28;20549;-47
2022/09/26 03:05:20;;;;;;;4.63;3.40;;;10.10;99.90;;;;;;5029303;28;20521;-48
2022/09/26 03:07:50;;;;;;;4.40;2.70;;;10.10;99.90;;;;;;5030790;28;20492;-48
2022/09/26 03:10:18;;;;;;;4.27;2.90;;;10.10;99.90;;;;;;5026430;28;20494;-49
2022/09/26 03:12:45;;;;;;;6.57;3.27;;;10.10;99.90;;;;;;5030695;28;20521;-48
2022/09/26 03:15:13;;;;;;;3.73;2.40;;;10.10;99.90;;;;;;5028126;28;20498;-48
2022/09/26 03:17:43;;;;;;;4.40;2.80;;;10.00;99.90;;;;;;5025420;28;20490;-49
2022/09/26 03:20:13;;;;;;;3.07;2.87;;;9.90;99.90;;;;;;5028969;28;20510;-48
2022/09/26 03:22:42;;;;;;;3.83;3.40;;;9.90;99.90;;;;;;5029041;28;20558;-48
2022/09/26 03:25:12;;;;;;;4.57;2.37;;;9.90;99.90;;;;;;5027188;28;21020;-49
2022/09/26 03:27:42;;;;;;;5.90;3.00;;;9.90;99.90;;;;;;5029037;28;20948;-47
2022/09/26 03:30:10;;;;;;;5.57;3.13;;;9.80;99.90;;;;;;5028952;28;20518;-48
2022/09/26 03:32:37;;;;;;;3.37;2.60;;;9.80;99.90;;;;;;5029531;28;20514;-48
2022/09/26 03:35:04;;;;;;;4.53;2.40;;;9.70;99.90;;;;;;5030105;28;20528;-49
2022/09/26 03:37:33;;;;;;;4.63;2.50;;;9.70;99.90;;;;;;5026972;28;20562;-48
2022/09/26 03:40:01;;;;;;;6.03;4.07;;;9.60;99.90;;;;;;5029082;28;20480;-49
2022/09/26 03:42:27;;;;;;;3.40;2.77;;;9.60;99.90;;;;;;5023085;28;20454;-48
2022/09/26 03:44:54;;;;;;;3.07;2.83;;;9.60;99.90;;;;;;5027494;28;20494;-48
2022/09/26 03:47:21;;;;;;;4.57;3.27;;;9.50;99.90;;;;;;5026434;28;20976;-48
2022/09/26 03:49:47;;;;;;;6.33;3.23;;;9.50;99.90;;;;;;5029057;28;20501;-48
2022/09/26 03:52:14;;;;;;;3.67;3.17;;;9.50;99.90;;;;;;5027460;28;20937;-48
2022/09/26 03:54:41;;;;;;;3.17;2.90;;;9.50;99.90;;;;;;5030096;28;20470;-48
2022/09/26 03:57:11;;;;;;;5.50;3.43;;;9.50;99.90;;;;;;5031633;28;20499;-48
2022/09/26 03:59:38;;;;;;;6.43;3.17;;;9.50;99.90;;;;;;5024558;28;20470;-48
2022/09/26 04:02:05;;;;;;;6.67;3.30;;;9.40;99.90;;;;;;5026354;28;21042;-48
2022/09/26 04:04:32;;;;;;;2.80;2.63;;;9.40;99.90;;;;;;5032240;28;20456;-49
2022/09/26 04:06:58;;;;;;;3.20;2.93;;;9.40;99.90;;;;;;5030634;28;20463;-49
2022/09/26 04:09:25;;;;;;;4.30;3.33;;;9.40;99.90;;;;;;5030762;28;20505;-49
2022/09/26 04:11:52;;;;;;;3.60;3.30;;;9.40;99.90;;;;;;5028511;28;20561;-49
2022/09/26 04:14:20;;;;;;;4.67;2.43;;;9.30;99.90;;;;;;5030103;28;20494;-48
2022/09/26 04:16:47;;;;;;;4.60;3.27;;;9.30;99.90;;;;;;5023570;28;20455;-48
2022/09/26 04:19:14;;;;;;;4.37;3.40;;;9.30;99.90;;;;;;5031502;28;20559;-49
2022/09/26 04:21:41;;;;;;;4.13;3.70;;;9.20;99.90;;;;;;5030066;28;20514;-48
2022/09/26 04:24:13;;;;;;;4.20;2.70;;;9.20;99.90;;;;;;5028671;28;20495;-48
2022/09/26 04:26:41;;;;;;;4.03;3.40;;;9.20;99.90;;;;;;5030921;28;20453;-49
2022/09/26 04:29:08;;;;;;;3.10;2.60;;;9.10;99.90;;;;;;5029336;28;20466;-49
2022/09/26 04:31:36;;;;;;;6.40;2.77;;;9.10;99.90;;;;;;5028250;28;20572;-48
2022/09/26 04:34:03;;;;;;;3.53;2.70;;;9.00;99.90;;;;;;5027134;28;20463;-49
2022/09/26 04:36:30;;;;;;;2.93;2.63;;;8.90;99.90;;;;;;5027700;28;20466;-49
2022/09/26 04:38:59;;;;;;;3.20;3.00;;;8.90;99.90;;;;;;5026459;28;20502;-48
2022/09/26 04:41:27;;;;;;;2.77;2.30;;;8.90;99.90;;;;;;5028172;28;20856;-49
2022/09/26 04:43:54;;;;;;;4.60;2.93;;;8.90;99.90;;;;;;5029347;28;20516;-48
2022/09/26 04:46:22;;;;;;;3.53;3.07;;;8.90;99.90;;;;;;5025388;28;20490;-48
2022/09/26 04:48:51;;;;;;;4.93;3.20;;;8.80;99.90;;;;;;5016733;28;20553;-49
2022/09/26 04:51:19;;;;;;;2.47;2.37;;;8.80;99.90;;;;;;5023926;28;20483;-49
2022/09/26 04:53:46;;;;;;;4.03;2.80;;;8.80;99.90;;;;;;5026571;28;21030;-49
2022/09/26 04:56:14;;;;;;;5.23;3.00;;;8.80;99.90;;;;;;5031801;28;20490;-48
2022/09/26 04:58:42;;;;;;;4.57;3.10;;;8.70;99.90;;;;;;5024660;28;21004;-48
2022/09/26 05:01:11;;;;;;;4.20;2.87;;;8.70;99.90;;;;;;5021351;28;20485;-48
2022/09/26 05:03:38;;;;;;;6.60;3.30;;;8.70;99.90;;;;;;5023187;28;20533;-49
2022/09/26 05:06:07;;;;;;;9.63;4.63;;;8.60;99.90;;;;;;5022852;28;20469;-48
2022/09/26 05:08:34;;;;;;;3.00;2.70;;;8.60;99.90;;;;;;5022572;28;20459;-48
2022/09/26 05:11:01;;;;;;;3.80;3.03;;;8.60;99.90;;;;;;5022699;28;20900;-48
2022/09/26 05:13:29;;;;;;;3.17;2.87;;;8.60;99.90;;;;;;5030237;28;20481;-49
2022/09/26 05:15:58;;;;;;;3.17;2.83;;;8.50;99.90;;;;;;5029146;28;20505;-48
2022/09/26 05:18:26;;;;;;;6.07;2.93;;;8.50;99.90;;;;;;5025838;28;20461;-48
2022/09/26 05:20:54;;;;;;;2.90;2.70;;;8.60;99.90;;;;;;5030970;28;20482;-48
2022/09/26 05:26:19;;;;;;;7.43;3.30;;;8.60;99.90;;;;;;5029072;28;20850;-48
2022/09/26 05:28:47;;;;;;;6.20;5.30;;;8.60;99.90;;;;;;5015835;28;20454;-48
2022/09/26 05:31:14;;;;;;;4.90;4.47;;;8.70;99.90;;;;;;5026648;28;20586;-48
2022/09/26 05:33:41;;;;;;;9.00;4.67;;;8.70;99.90;;;;;;5026191;28;20482;-48
2022/09/26 05:36:08;;;;;;;4.93;4.47;;;8.80;99.90;;;;;;5030108;28;20458;-48
2022/09/26 05:38:36;;;;;;;4.33;3.63;;;8.80;99.90;;;;;;5025946;28;20490;-48
2022/09/26 05:41:01;;;;;;;4.37;3.73;;;8.90;99.90;;;;;;5023891;28;20521;-48
2022/09/26 05:43:30;;;;;;;4.23;3.80;;;8.90;99.90;;;;;;5029629;28;20487;-48
2022/09/26 05:45:57;;;;;;;3.97;3.60;;;9.00;99.90;;;;;;5030228;28;20642;-49
2022/09/26 05:48:24;;;;;;;6.03;3.67;;;9.00;99.90;;;;;;5028450;28;20470;-49
2022/09/26 05:50:51;;;;;;;6.80;4.03;;;9.10;99.90;;;;;;5028185;28;20486;-48
2022/09/26 05:53:18;;;;;;;3.60;3.30;;;9.10;99.90;;;;;;5031035;28;20514;-48
2022/09/26 05:55:50;;;;;;;5.57;3.73;;;9.30;99.90;;;;;;5031332;28;20462;-48
2022/09/26 05:58:18;;;;;;;7.10;3.97;;;9.30;99.90;;;;;;5031634;28;20490;-48
2022/09/26 06:00:46;;;;;;;5.23;4.73;;;9.40;99.90;;;;;;5027475;28;20896;-47
2022/09/26 06:03:13;;;;;;;4.90;4.40;;;9.40;99.90;;;;;;5033683;28;20554;-48
2022/09/26 06:05:40;;;;;;;4.50;4.10;;;9.50;99.90;;;;;;5030631;28;20486;-47
2022/09/26 06:08:07;;;;;;;4.00;3.70;;;9.60;99.90;;;;;;5027545;28;20473;-49
2022/09/26 06:10:34;;;;;;;5.20;3.83;;;9.60;99.90;;;;;;5032059;28;20544;-46
2022/09/26 06:13:03;;;;;;;11.90;4.17;;;9.70;99.90;;;;;;5032402;28;20522;-45
2022/09/26 06:15:30;;;;;;;23.17;6.10;;;9.70;99.90;;;;;;5032456;28;20494;-47
2022/09/26 06:18:00;;;;;;;7.43;4.00;;;9.80;99.90;;;;;;5032595;28;20534;-47
2022/09/26 06:20:27;;;;;;;8.93;3.90;;;9.90;99.90;;;;;;5033338;28;20474;-46
2022/09/26 06:22:54;;;;;;;4.80;3.73;;;9.90;99.90;;;;;;5032371;28;22080;-46
2022/09/26 06:25:21;;;;;;;4.87;4.10;;;10.00;99.90;;;;;;5031183;28;20963;-47
2022/09/26 06:27:48;;;;;;;7.13;3.80;;;10.00;99.90;;;;;;5032431;28;20494;-47
2022/09/26 06:30:16;;;;;;;5.30;3.43;;;10.10;99.90;;;;;;5034286;28;20490;-47
2022/09/26 06:32:45;;;;;;;4.30;3.90;;;10.20;99.90;;;;;;5034229;28;21032;-46
2022/09/26 06:35:11;;;;;;;5.30;3.77;;;10.20;99.90;;;;;;5034444;28;20505;-47
2022/09/26 06:37:38;;;;;;;3.37;3.03;;;10.30;99.90;;;;;;5033128;28;20967;-47
2022/09/26 06:40:07;;;;;;;4.07;3.07;;;10.30;99.90;;;;;;5034016;28;20467;-46
2022/09/26 06:42:36;;;;;;;4.83;2.90;;;10.40;99.90;;;;;;5032383;28;20459;-46
2022/09/26 06:45:05;;;;;;;5.30;3.37;;;10.50;99.90;;;;;;5032723;28;20458;-47
2022/09/26 06:47:33;;;;;;;3.53;3.20;;;10.50;99.90;;;;;;5034032;28;20439;-46
2022/09/26 06:49:59;;;;;;;3.70;3.40;;;10.60;99.90;;;;;;5033932;28;21015;-47
2022/09/26 06:52:28;;;;;;;3.37;3.10;;;10.60;99.90;;;;;;5033562;28;20514;-47
2022/09/26 06:54:55;;;;;;;4.07;3.67;;;10.70;99.90;;;;;;5029202;28;20488;-46
2022/09/26 06:57:22;;;;;;;4.73;3.03;;;10.70;99.90;;;;;;5025921;28;20557;-46
2022/09/26 06:59:48;;;;;;;4.77;2.63;;;10.90;99.90;;;;;;5037278;28;20487;-47
2022/09/26 07:02:15;;;;;;;3.40;2.90;;;10.90;99.90;;;;;;5034991;28;20477;-46
2022/09/26 07:04:43;;;;;;;3.43;2.83;;;11.00;99.90;;;;;;5032647;28;20874;-47
2022/09/26 07:07:10;;;;;;;9.00;3.50;;;11.10;99.90;;;;;;5030915;28;20964;-46
2022/09/26 07:09:36;;;;;;;9.57;3.07;;;11.10;99.90;;;;;;5034583;28;20494;-48
2022/09/26 07:12:04;;;;;;;7.80;3.33;;;11.30;99.90;;;;;;5027624;28;20850;-46
2022/09/26 07:14:31;;;;;;;6.30;2.87;;;11.40;99.90;;;;;;5033000;28;20482;-47
2022/09/26 07:16:57;;;;;;;7.80;2.60;;;11.50;99.90;;;;;;5031228;28;20520;-46
2022/09/26 07:19:24;;;;;;;7.50;3.30;;;11.60;99.90;;;;;;5031437;28;20497;-47
2022/09/26 07:21:53;;;;;;;6.03;3.70;;;11.70;99.90;;;;;;5027740;28;20514;-47
2022/09/26 07:24:20;;;;;;;3.77;2.70;;;11.80;99.90;;;;;;5018991;28;20482;-47
2022/09/26 07:26:46;;;;;;;7.97;3.50;;;11.90;99.90;;;;;;5027152;28;20486;-46
2022/09/26 07:29:13;;;;;;;4.10;3.30;;;12.10;99.90;;;;;;5026174;28;20494;-46
2022/09/26 07:31:39;;;;;;;9.93;3.10;;;12.10;26.40;;;;;;5029581;28;20502;-45
2022/09/26 07:34:07;;;;;;;7.60;4.27;;;12.30;31.60;;;;;;5027911;28;20573;-47
2022/09/26 07:36:34;;;;;;;5.70;3.30;;;12.40;49.30;;;;;;5035154;28;20469;-46
2022/09/26 07:39:02;;;;;;;4.23;3.50;;;12.40;58.60;;;;;;5029823;28;20841;-47
2022/09/26 07:41:30;;;;;;;4.37;3.33;;;12.60;65.80;;;;;;5041214;28;20461;-47
2022/09/26 07:43:57;;;;;;;9.63;3.70;;;12.60;69.40;;;;;;5033235;28;20497;-47
2022/09/26 07:51:54;;;;;;;9.33;3.87;;;12.80;99.90;;;;;;5023830;28;20474;-46
2022/09/26 07:54:23;;;;;;;10.33;3.00;;;12.90;99.90;;;;;;5027397;28;20482;-46
2022/09/26 07:56:49;;;;;;;5.27;3.00;;;12.90;99.90;;;;;;5028010;28;20494;-47
2022/09/26 07:59:17;;;;;;;5.67;2.87;;;13.00;99.90;;;;;;5026871;28;20459;-47
2022/09/26 08:01:45;;;;;;;3.63;2.93;;;13.10;99.90;;;;;;5026116;28;20497;-46
2022/09/26 08:04:12;;;;;;;6.10;2.27;;;13.10;99.90;;;;;;5031103;28;20809;-46
2022/09/26 08:06:38;;;;;;;6.23;2.60;;;13.20;99.90;;;;;;5033341;28;20566;-47
2022/09/26 08:09:05;;;;;;;3.03;2.50;;;13.20;99.90;;;;;;5025514;28;20498;-48
2022/09/26 08:11:34;;;;;;;5.70;2.43;;;13.40;99.90;;;;;;5049665;22;20603;-48
2022/09/26 08:14:01;;;;;;;4.50;2.60;;;13.50;99.90;;;;;;5045899;28;20481;-47
2022/09/26 08:16:28;;;;;;;4.83;2.47;;;13.50;99.90;;;;;;5045008;28;20465;-48
2022/09/26 08:18:55;;;;;;;6.03;1.80;;;13.60;99.90;;;;;;5047324;28;20462;-49
2022/09/26 08:21:22;;;;;;;2.40;1.87;;;13.80;99.90;;;;;;5035924;28;20568;-47
2022/09/26 08:23:48;;;;;;;1.87;1.23;;;13.90;99.90;;;;;;5025147;28;20590;-47
2022/09/26 08:26:15;;;;;;;3.83;1.70;;;14.00;81.40;;;;;;5029480;28;20498;-47
2022/09/26 08:28:43;;;;;;;4.20;1.60;;;14.10;85.80;;;;;;5030035;28;20948;-48
2022/09/26 08:31:10;;;;;;;3.83;1.80;;;14.20;80.50;;;;;;5023514;28;20525;-48
2022/09/26 08:33:37;;;;;;;5.93;1.50;;;14.30;28.90;;;;;;5028741;28;20489;-48
2022/09/26 08:36:05;;;;;;;6.00;1.60;;;14.40;21.00;;;;;;5029489;28;20462;-47
2022/09/26 08:38:32;;;;;;;4.83;1.73;;;14.40;43.90;;;;;;5030241;28;20971;-48
2022/09/26 08:41:08;;;;;;;8.50;1.90;;;14.40;55.40;;;;;;5030294;28;20510;-48
2022/09/26 08:43:57;;;;;;;4.80;2.10;;;14.40;62.40;;;;;;5023975;28;20956;-48
2022/09/26 08:46:42;;;;;;;4.17;1.60;;;14.40;62.40;;;;;;5028232;28;20494;-48
2022/09/26 08:49:38;;;;;;;1.53;1.43;;;14.50;54.30;;;;;;5028133;28;20462;-48
2022/09/26 08:52:11;;;;;;;9.97;1.90;;;14.60;47.30;;;;;;5028311;28;20557;-48
2022/09/26 08:54:41;;;;;;;2.00;1.50;;;14.80;62.20;;;;;;5021521;28;20518;-47
2022/09/26 08:57:26;;;;;;;1.23;1.13;;;14.90;71.80;;;;;;5023754;28;20542;-47
2022/09/26 08:59:55;;;;;;;1.70;1.60;;;14.90;68.20;;;;;;5028282;28;20458;-48
2022/09/26 09:02:29;;;;;;;1.67;1.27;;;15.00;74.10;;;;;;5025454;28;20569;-47
2022/09/26 09:05:00;;;;;;;8.83;1.57;;;15.00;88.90;;;;;;5027812;28;20458;-47
2022/09/26 09:07:27;;;;;;;1.50;1.33;;;15.10;94.10;;;;;;5023903;28;20486;-49
2022/09/26 09:09:59;;;;;;;1.80;1.47;;;15.00;88.50;;;;;;5028094;28;20487;-50
2022/09/26 09:12:37;;;;;;;3.43;1.37;;;14.90;94.80;;;;;;5025939;28;20466;-47
2022/09/26 09:15:23;;;;;;;2.30;1.20;;;14.90;92.50;;;;;;5030923;28;20933;-48
2022/09/26 09:18:01;;;;;;;4.23;1.37;;;15.10;94.50;;;;;;5026630;28;20516;-48
2022/09/26 09:20:41;;;;;;;6.93;1.47;;;15.40;99.80;;;;;;5028136;28;20509;-48
2022/09/26 09:23:36;;;;;;;2.97;1.13;;;15.50;99.90;;;;;;5029399;28;20952;-48
2022/09/26 09:26:11;;;;;;;5.20;1.50;;;15.80;99.40;;;;;;5021856;28;20521;-49
2022/09/26 09:28:56;;;;;;;5.40;0.83;;;16.00;99.90;;;;;;5031093;28;20892;-47
2022/09/26 09:31:26;;;;;;;3.07;0.90;;;16.00;99.90;;;;;;5025540;28;20475;-48
2022/09/26 09:33:59;;;;;;;3.67;1.57;;;15.90;99.90;;;;;;5032926;28;21268;-48
2022/09/26 09:36:29;;;;;;;6.50;2.60;;;15.70;99.90;;;;;;5031605;28;20968;-47
2022/09/26 09:39:02;;;;;;;16.23;1.80;;;15.70;99.90;;;;;;5033020;28;21000;-48
2022/09/26 09:41:34;;;;;;;3.03;1.70;;;15.60;99.90;;;;;;5029816;28;20514;-49
2022/09/26 09:44:05;;;;;;;3.07;1.10;;;15.60;99.90;;;;;;5034469;28;20471;-47
2022/09/26 09:46:43;;;;;;;1.90;1.13;;;15.40;99.90;;;;;;5032194;28;20490;-48
2022/09/26 09:49:19;;;;;;;3.50;1.17;;;15.30;99.90;;;;;;5034491;28;20447;-47
2022/09/26 09:51:59;;;;;;;2.67;0.90;;;15.50;99.90;;;;;;5030204;28;20509;-47
2022/09/26 09:54:37;;;;;;;1.33;0.90;;;15.70;99.90;;;;;;5030767;28;20928;-47
2022/09/26 09:57:35;;;;;;;6.27;1.50;;;15.70;99.90;;;;;;5031417;28;20516;-48
2022/09/26 10:00:11;;;;;;;2.60;1.33;;;15.80;99.90;;;;;;5019493;28;20469;-48
2022/09/26 10:02:46;;;;;;;4.03;1.60;;;15.60;99.90;;;;;;5032299;28;20454;-48
2022/09/26 10:05:32;;;;;;;5.03;1.30;;;15.60;99.90;;;;;;5028477;28;20485;-47
2022/09/26 10:07:59;;;;;;;1.63;0.97;;;15.80;99.90;;;;;;5029319;28;20498;-49
2022/09/26 10:10:32;;;;;;;1.80;1.10;;;15.60;99.90;;;;;;5030573;28;20481;-47
2022/09/26 10:12:59;;;;;;;1.93;1.30;;;15.50;99.90;;;;;;5025643;28;20466;-47
2022/09/26 10:15:26;;;;;;;7.03;1.33;;;15.50;99.90;;;;;;5030296;28;20861;-49
2022/09/26 10:18:05;;;;;;;3.10;0.90;;;15.50;99.90;;;;;;5031967;28;21155;-47
2022/09/26 10:20:39;;;;;;;2.97;1.30;;;15.40;99.90;;;;;;5033213;28;20478;-48
2022/09/26 10:23:23;;;;;;;2.30;1.00;;;15.40;99.90;;;;;;5035010;28;20816;-48
2022/09/26 10:25:52;;;;;;;4.13;1.43;;;15.40;99.90;;;;;;5029353;28;20506;-48
2022/09/26 10:28:32;;;;;;;1.77;0.93;;;15.50;99.90;;;;;;5030765;28;20909;-48
2022/09/26 10:31:07;;;;;;;3.03;1.20;;;15.50;99.90;;;;;;5022180;28;20510;-47
2022/09/26 10:33:37;;;;;;;1.80;1.07;;;15.50;99.90;;;;;;5027806;28;21018;-47
2022/09/26 10:36:17;;;;;;;1.37;0.90;;;15.50;99.90;;;;;;5028645;28;20960;-48
2022/09/26 10:41:39;;;;;;;4.60;1.63;;;15.40;99.90;;;;;;5009921;28;21079;-48
2022/09/26 10:44:21;;;;;;;2.10;1.33;;;15.40;99.90;;;;;;5031204;28;20454;-47
2022/09/26 10:46:50;;;;;;;4.83;1.40;;;15.30;99.90;;;;;;5029693;28;20458;-47
2022/09/26 10:49:23;;;;;;;2.30;1.20;;;15.30;99.90;;;;;;5031821;28;21245;-48
2022/09/26 10:51:58;;;;;;;2.20;1.07;;;15.30;99.90;;;;;;5021801;28;20494;-47
2022/09/26 10:54:41;;;;;;;1.10;1.00;;;15.30;99.90;;;;;;5026957;28;20521;-47
2022/09/26 10:57:20;;;;;;;1.27;0.97;;;15.40;99.90;;;;;;5025724;28;20836;-47
2022/09/26 10:59:48;;;;;;;1.77;1.10;;;15.30;99.90;;;;;;5028315;28;20495;-48
2022/09/26 11:02:20;;;;;;;1.60;0.80;;;15.30;99.90;;;;;;5032365;28;20498;-48
2022/09/26 11:07:41;;;;;;;1.73;0.90;;;15.30;99.90;;;;;;5030507;28;20452;-47
2022/09/26 11:10:12;;;;;;;2.73;1.10;;;15.30;99.90;;;;;;5032747;28;20458;-48
2022/09/26 11:12:55;;;;;;;3.07;1.00;;;15.30;99.90;;;;;;5031107;28;20466;-47
2022/09/26 11:15:23;;;;;;;1.70;1.03;;;15.30;99.90;;;;;;5031165;28;20478;-48
2022/09/26 11:17:51;;;;;;;1.67;0.97;;;15.40;99.90;;;;;;5030580;28;20476;-47
2022/09/26 11:20:33;;;;;;;2.30;1.10;;;15.40;99.90;;;;;;5030125;28;20973;-47
2022/09/26 11:23:08;;;;;;;1.53;1.07;;;15.50;99.90;;;;;;5031748;28;21010;-47
2022/09/26 11:25:48;;;;;;;1.37;0.97;;;15.50;99.90;;;;;;5029223;28;20482;-48
2022/09/26 11:28:22;;;;;;;2.73;1.00;;;15.60;99.90;;;;;;5025491;28;20554;-48
2022/09/26 11:30:55;;;;;;;1.10;1.00;;;15.70;99.90;;;;;;5028585;28;20482;-47
2022/09/26 11:33:22;;;;;;;4.77;1.20;;;15.90;99.90;;;;;;5032749;28;20478;-48
2022/09/26 11:36:03;;;;;;;2.23;1.17;;;16.10;99.90;;;;;;5031980;28;20489;-47
2022/09/26 11:38:38;;;;;;;1.53;0.70;;;16.20;99.90;;;;;;5031973;28;20499;-47
2022/09/26 11:41:35;;;;;;;2.97;0.83;;;16.20;99.90;;;;;;5030934;28;20495;-47
2022/09/26 11:44:22;;;;;;;2.30;1.03;;;16.10;99.90;;;;;;5029050;28;20528;-47
2022/09/26 11:47:06;;;;;;;1.80;0.80;;;16.20;99.90;;;;;;5029768;28;20447;-48
2022/09/26 11:49:52;;;;;;;13.33;5.27;;;16.30;99.90;;;;;;5021761;28;20497;-48
2022/09/26 11:52:32;;;;;;;1.93;1.83;;;16.30;99.90;;;;;;5026980;28;20487;-47
2022/09/26 11:55:15;;;;;;;1.40;1.30;;;16.40;99.90;;;;;;5032690;28;20529;-47
2022/09/26 11:57:52;;;;;;;2.83;1.53;;;16.50;99.90;;;;;;5029863;28;20461;-47
2022/09/26 12:00:26;;;;;;;1.53;1.23;;;16.50;99.90;;;;;;5029574;28;20849;-46
2022/09/26 12:03:36;;;;;;;1.27;1.23;;;16.60;99.90;;;;;;5027673;28;20509;-48
2022/09/26 12:06:16;;;;;;;2.73;1.20;;;16.60;99.90;;;;;;5020185;28;20516;-47
2022/09/26 12:09:01;;;;;;;6.73;1.30;;;16.50;99.90;;;;;;5022508;28;20497;-47
2022/09/26 12:11:36;;;;;;;4.00;1.30;;;16.30;99.90;;;;;;5024666;28;20486;-48
2022/09/26 12:14:09;;;;;;;2.60;1.40;;;16.20;99.90;;;;;;5027633;28;20482;-49
2022/09/26 12:16:45;;;;;;;6.23;1.10;;;16.00;99.90;;;;;;5028722;28;21009;-49
2022/09/26 12:19:23;;;;;;;3.67;1.87;;;15.90;99.90;;;;;;5024072;28;20461;-49
2022/09/26 12:24:56;;;;;;;3.23;1.80;;;15.80;99.90;;;;;;5025451;28;20803;-48
2022/09/26 12:27:31;;;;;;;2.40;1.47;;;15.70;99.90;;;;;;5028243;28;20467;-47
2022/09/26 12:30:05;;;;;;;7.33;1.40;;;15.70;99.90;;;;;;5028581;28;20469;-48
2022/09/26 12:32:47;;;;;;;1.30;1.10;;;15.70;99.90;;;;;;5029242;28;20932;-48
2022/09/26 12:35:27;;;;;;;7.30;1.23;;;15.70;99.90;;;;;;5031135;28;20510;-48
2022/09/26 12:38:27;;;;;;;2.40;1.40;;;15.70;99.90;;;;;;5024143;28;20522;-47
2022/09/26 12:41:05;;;;;;;1.63;1.00;;;15.70;99.90;;;;;;5026318;28;20498;-52
2022/09/26 12:43:56;;;;;;;5.90;1.30;;;15.70;99.90;;;;;;5028813;28;20490;-48
2022/09/26 12:46:46;;;;;;;2.00;1.43;;;15.80;99.90;;;;;;5025877;28;20490;-47
2022/09/26 12:49:34;;;;;;;2.53;1.40;;;15.80;99.90;;;;;;5030372;28;20796;-47
2022/09/26 12:52:08;;;;;;;2.03;0.90;;;15.80;99.90;;;;;;5025449;28;21033;-47
2022/09/26 12:54:54;;;;;;;3.40;1.47;;;15.80;99.90;;;;;;5027126;28;20513;-48
2022/09/26 12:57:32;;;;;;;8.97;1.10;;;15.90;99.90;;;;;;5028822;28;20486;-47
2022/09/26 13:00:11;;;;;;;3.70;1.20;;;15.90;99.90;;;;;;5028233;28;20462;-47
2022/09/26 13:03:20;;;;;;;3.37;0.90;;;16.00;99.90;;;;;;5034439;28;20490;-47
2022/09/26 13:06:21;;;;;;;2.50;1.07;;;16.00;99.90;;;;;;4988425;28;20962;-46
2022/09/26 13:08:59;;;;;;;4.47;1.30;;;16.10;99.90;;;;;;5028419;28;20463;-47
2022/09/26 13:11:34;;;;;;;6.57;1.63;;;16.10;99.90;;;;;;5020807;28;21040;-47
2022/09/26 13:14:28;;;;;;;1.17;1.00;;;16.10;99.90;;;;;;5030051;28;20500;-47
2022/09/26 13:17:08;;;;;;;0.93;0.93;;;16.20;99.90;;;;;;5021405;28;20900;-48
2022/09/26 13:19:39;;;;;;;4.20;1.10;;;16.30;99.90;;;;;;5024019;28;20509;-48
2022/09/26 13:22:20;;;;;;;3.43;1.07;;;16.30;99.90;;;;;;5025987;28;21024;-48
2022/09/26 13:24:52;;;;;;;9.83;1.67;;;16.40;99.90;;;;;;5024283;28;20486;-47
2022/09/26 13:27:22;;;;;;;1.10;1.10;;;16.40;99.90;;;;;;5025663;28;20522;-47
2022/09/26 13:29:57;;;;;;;2.17;1.57;;;16.30;99.90;;;;;;5027628;28;20462;-47
2022/09/26 13:32:29;;;;;;;6.73;1.37;;;16.30;99.90;;;;;;5026036;28;20564;-48